sensor_id;sensor_type;location;lat;lon;timestamp;temperature;humidity
13436;DHT22;6790;49.520;8.504;2022-11-04T00:01:53;11.60;99.90
13436;DHT22;6790;49.520;8.504;2022-11-04T00:04:20;11.60;99.90
13436;DHT22;6790;49.520;8.504;2022-11-04T00:06:47;11.50;99.90
13436;DHT22;6790;49.520;8.504;2022-11-04T00:09:21;11.50;99.90
13436;DHT22;6790;49.520;8.504;2022-11-04T00:11:48;11.50;99.90
13436;DHT22;6790;49.520;8.504;2022-11-04T00:14:33;11.50;99.90
13436;DHT22;6790;49.520;8.504;2022-11-04T00:17:00;11.50;99.90
13436;DHT22;6790;49.520;8.504;2022-11-04T00:19:53;11.50;99.90
13436;DHT22;6790;49.520;8.504;2022-11-04T00:22:40;11.40;99.90
13436;DHT22;6790;49.520;8.504;2022-11-04T00:25:25;11.40;99.90
13436;DHT22;6790;49.520;8.504;2022-11-04T00:28:15;11.40;99.90
13436;DHT22;6790;49.520;8.504;2022-11-04T00:31:01;11.50;99.90
13436;DHT22;6790;49.520;8.504;2022-11-04T00:33:48;11.40;99.90
13436;DHT22;6790;49.520;8.504;2022-11-04T00:36:15;11.50;99.90
13436;DHT22;6790;49.520;8.504;2022-11-04T00:38:41;11.40;99.90
13436;DHT22;6790;49.520;8.504;2022-11-04T00:41:07;11.40;99.90
13436;DHT22;6790;49.520;8.504;2022-11-04T00:43:51;11.40;99.90
13436;DHT22;6790;49.520;8.504;2022-11-04T00:46:17;11.50;99.90
13436;DHT22;6790;49.520;8.504;2022-11-04T00:48:42;11.50;99.90
13436;DHT22;6790;49.520;8.504;2022-11-04T00:51:08;11.40;99.90
13436;DHT22;6790;49.520;8.504;2022-11-04T00:53:34;11.40;99.90
13436;DHT22;6790;49.520;8.504;2022-11-04T00:55:59;11.40;99.90
13436;DHT22;6790;49.520;8.504;2022-11-04T00:58:27;11.30;99.90
13436;DHT22;6790;49.520;8.504;2022-11-04T01:00:53;11.40;99.90
13436;DHT22;6790;49.520;8.504;2022-11-04T01:03:19;11.30;99.90
13436;DHT22;6790;49.520;8.504;2022-11-04T01:05:44;11.40;99.90
13436;DHT22;6790;49.520;8.504;2022-11-04T01:08:10;11.30;99.90
13436;DHT22;6790;49.520;8.504;2022-11-04T01:10:36;11.30;99.90
13436;DHT22;6790;49.520;8.504;2022-11-04T01:13:09;11.30;99.90
13436;DHT22;6790;49.520;8.504;2022-11-04T01:15:36;11.30;99.90
13436;DHT22;6790;49.520;8.504;2022-11-04T01:18:03;11.30;99.90
13436;DHT22;6790;49.520;8.504;2022-11-04T01:20:29;11.30;99.90
13436;DHT22;6790;49.520;8.504;2022-11-04T01:22:55;11.30;99.90
13436;DHT22;6790;49.520;8.504;2022-11-04T01:25:20;11.30;99.90
13436;DHT22;6790;49.520;8.504;2022-11-04T01:27:46;11.30;99.90
13436;DHT22;6790;49.520;8.504;2022-11-04T01:30:12;11.30;99.90
13436;DHT22;6790;49.520;8.504;2022-11-04T01:32:38;11.30;99.90
13436;DHT22;6790;49.520;8.504;2022-11-04T01:35:04;11.30;99.90
13436;DHT22;6790;49.520;8.504;2022-11-04T01:37:30;11.30;99.90
13436;DHT22;6790;49.520;8.504;2022-11-04T01:39:56;11.30;99.90
13436;DHT22;6790;49.520;8.504;2022-11-04T01:42:22;11.30;99.90
13436;DHT22;6790;49.520;8.504;2022-11-04T01:44:56;11.30;99.90
13436;DHT22;6790;49.520;8.504;2022-11-04T01:47:31;11.30;99.90
13436;DHT22;6790;49.520;8.504;2022-11-04T01:50:07;11.30;99.90
13436;DHT22;6790;49.520;8.504;2022-11-04T01:55:19;11.30;99.90
13436;DHT22;6790;49.520;8.504;2022-11-04T01:57:50;11.30;99.90
13436;DHT22;6790;49.520;8.504;2022-11-04T02:00:17;11.30;99.90
13436;DHT22;6790;49.520;8.504;2022-11-04T02:02:53;11.30;99.90
13436;DHT22;6790;49.520;8.504;2022-11-04T02:05:22;11.20;99.90
13436;DHT22;6790;49.520;8.504;2022-11-04T02:07:50;11.30;99.90
13436;DHT22;6790;49.520;8.504;2022-11-04T02:10:19;11.30;99.90
13436;DHT22;6790;49.520;8.504;2022-11-04T02:12:48;11.20;99.90
13436;DHT22;6790;49.520;8.504;2022-11-04T02:15:14;11.20;99.90
13436;DHT22;6790;49.520;8.504;2022-11-04T02:30:09;11.10;99.90
13436;DHT22;6790;49.520;8.504;2022-11-04T02:32:59;11.10;99.90
13436;DHT22;6790;49.520;8.504;2022-11-04T02:35:57;11.10;99.90
13436;DHT22;6790;49.520;8.504;2022-11-04T02:38:34;11.10;99.90
13436;DHT22;6790;49.520;8.504;2022-11-04T02:41:04;11.00;99.90
13436;DHT22;6790;49.520;8.504;2022-11-04T02:46:23;11.10;99.90
13436;DHT22;6790;49.520;8.504;2022-11-04T02:49:20;11.00;99.90
13436;DHT22;6790;49.520;8.504;2022-11-04T02:52:13;11.10;99.90
13436;DHT22;6790;49.520;8.504;2022-11-04T02:54:48;11.10;99.90
13436;DHT22;6790;49.520;8.504;2022-11-04T02:57:23;11.10;99.90
13436;DHT22;6790;49.520;8.504;2022-11-04T03:00:05;11.10;99.90
13436;DHT22;6790;49.520;8.504;2022-11-04T03:02:46;11.10;99.90
13436;DHT22;6790;49.520;8.504;2022-11-04T03:05:19;11.10;99.90
13436;DHT22;6790;49.520;8.504;2022-11-04T03:07:49;11.10;99.90
13436;DHT22;6790;49.520;8.504;2022-11-04T03:10:25;11.00;99.90
13436;DHT22;6790;49.520;8.504;2022-11-04T03:13:05;11.00;99.90
13436;DHT22;6790;49.520;8.504;2022-11-04T03:15:38;11.00;99.90
13436;DHT22;6790;49.520;8.504;2022-11-04T03:21:34;10.90;99.90
13436;DHT22;6790;49.520;8.504;2022-11-04T03:24:02;10.80;99.90
13436;DHT22;6790;49.520;8.504;2022-11-04T03:26:35;10.80;99.90
13436;DHT22;6790;49.520;8.504;2022-11-04T03:29:15;10.80;99.90
13436;DHT22;6790;49.520;8.504;2022-11-04T03:34:50;10.70;99.90
13436;DHT22;6790;49.520;8.504;2022-11-04T03:37:17;10.60;99.90
13436;DHT22;6790;49.520;8.504;2022-11-04T03:39:42;10.60;99.90
13436;DHT22;6790;49.520;8.504;2022-11-04T03:42:10;10.50;99.90
13436;DHT22;6790;49.520;8.504;2022-11-04T03:44:48;10.50;99.90
13436;DHT22;6790;49.520;8.504;2022-11-04T03:47:16;10.50;99.90
13436;DHT22;6790;49.520;8.504;2022-11-04T03:49:47;10.50;99.90
13436;DHT22;6790;49.520;8.504;2022-11-04T03:52:14;10.40;99.90
13436;DHT22;6790;49.520;8.504;2022-11-04T03:54:41;10.40;99.90
13436;DHT22;6790;49.520;8.504;2022-11-04T03:57:33;10.40;99.90
13436;DHT22;6790;49.520;8.504;2022-11-04T04:00:14;10.40;99.90
13436;DHT22;6790;49.520;8.504;2022-11-04T04:03:08;10.30;99.90
13436;DHT22;6790;49.520;8.504;2022-11-04T04:06:11;10.30;99.90
13436;DHT22;6790;49.520;8.504;2022-11-04T04:08:45;10.20;99.90
13436;DHT22;6790;49.520;8.504;2022-11-04T04:14:31;10.10;99.90
13436;DHT22;6790;49.520;8.504;2022-11-04T04:17:27;10.10;99.90
13436;DHT22;6790;49.520;8.504;2022-11-04T04:20:19;10.00;99.90
13436;DHT22;6790;49.520;8.504;2022-11-04T04:22:58;10.00;99.90
13436;DHT22;6790;49.520;8.504;2022-11-04T04:25:28;10.00;99.90
13436;DHT22;6790;49.520;8.504;2022-11-04T04:28:16;10.00;99.90
13436;DHT22;6790;49.520;8.504;2022-11-04T04:30:44;9.80;99.90
13436;DHT22;6790;49.520;8.504;2022-11-04T04:33:13;9.70;99.90
13436;DHT22;6790;49.520;8.504;2022-11-04T04:35:52;9.70;99.90
13436;DHT22;6790;49.520;8.504;2022-11-04T04:38:27;9.60;99.90
13436;DHT22;6790;49.520;8.504;2022-11-04T04:41:17;9.60;99.90
13436;DHT22;6790;49.520;8.504;2022-11-04T04:44:08;9.50;99.90
13436;DHT22;6790;49.520;8.504;2022-11-04T04:46:57;9.50;99.90
13436;DHT22;6790;49.520;8.504;2022-11-04T04:49:23;9.40;99.90
13436;DHT22;6790;49.520;8.504;2022-11-04T04:51:49;9.30;99.90
13436;DHT22;6790;49.520;8.504;2022-11-04T04:54:14;9.30;99.90
13436;DHT22;6790;49.520;8.504;2022-11-04T04:56:40;9.30;99.90
13436;DHT22;6790;49.520;8.504;2022-11-04T04:59:06;9.20;99.90
13436;DHT22;6790;49.520;8.504;2022-11-04T05:01:32;9.20;99.90
13436;DHT22;6790;49.520;8.504;2022-11-04T05:03:57;9.20;99.90
13436;DHT22;6790;49.520;8.504;2022-11-04T05:06:23;9.30;99.90
13436;DHT22;6790;49.520;8.504;2022-11-04T05:08:49;9.20;99.90
13436;DHT22;6790;49.520;8.504;2022-11-04T05:11:14;9.10;99.90
13436;DHT22;6790;49.520;8.504;2022-11-04T05:13:40;9.20;99.90
13436;DHT22;6790;49.520;8.504;2022-11-04T05:16:08;9.20;99.90
13436;DHT22;6790;49.520;8.504;2022-11-04T05:18:35;9.20;99.90
13436;DHT22;6790;49.520;8.504;2022-11-04T05:21:10;9.20;99.90
13436;DHT22;6790;49.520;8.504;2022-11-04T05:23:37;9.20;99.90
13436;DHT22;6790;49.520;8.504;2022-11-04T05:26:03;9.20;99.90
13436;DHT22;6790;49.520;8.504;2022-11-04T05:28:28;9.30;99.90
13436;DHT22;6790;49.520;8.504;2022-11-04T05:30:54;9.40;99.90
13436;DHT22;6790;49.520;8.504;2022-11-04T05:33:20;9.40;99.90
13436;DHT22;6790;49.520;8.504;2022-11-04T05:35:46;9.50;99.90
13436;DHT22;6790;49.520;8.504;2022-11-04T05:38:11;9.60;99.90
13436;DHT22;6790;49.520;8.504;2022-11-04T05:40:37;9.70;99.90
13436;DHT22;6790;49.520;8.504;2022-11-04T05:43:06;9.70;99.90
13436;DHT22;6790;49.520;8.504;2022-11-04T05:45:32;9.70;99.90
13436;DHT22;6790;49.520;8.504;2022-11-04T05:48:03;9.80;99.90
13436;DHT22;6790;49.520;8.504;2022-11-04T05:50:31;9.80;99.90
13436;DHT22;6790;49.520;8.504;2022-11-04T05:52:59;9.80;99.90
13436;DHT22;6790;49.520;8.504;2022-11-04T05:55:25;9.80;99.90
13436;DHT22;6790;49.520;8.504;2022-11-04T05:57:51;9.80;99.90
13436;DHT22;6790;49.520;8.504;2022-11-04T06:00:18;9.80;99.90
13436;DHT22;6790;49.520;8.504;2022-11-04T06:02:44;9.80;99.90
13436;DHT22;6790;49.520;8.504;2022-11-04T06:05:10;9.80;99.90
13436;DHT22;6790;49.520;8.504;2022-11-04T06:07:36;9.80;99.90
13436;DHT22;6790;49.520;8.504;2022-11-04T06:10:01;9.80;99.90
13436;DHT22;6790;49.520;8.504;2022-11-04T06:12:28;9.80;99.90
13436;DHT22;6790;49.520;8.504;2022-11-04T06:14:53;9.80;99.90
13436;DHT22;6790;49.520;8.504;2022-11-04T06:17:21;9.70;99.90
13436;DHT22;6790;49.520;8.504;2022-11-04T06:19:47;9.70;99.90
13436;DHT22;6790;49.520;8.504;2022-11-04T06:22:15;9.70;99.90
13436;DHT22;6790;49.520;8.504;2022-11-04T06:24:42;9.60;99.90
13436;DHT22;6790;49.520;8.504;2022-11-04T06:27:09;9.60;99.90
13436;DHT22;6790;49.520;8.504;2022-11-04T06:29:35;9.60;99.90
13436;DHT22;6790;49.520;8.504;2022-11-04T06:32:16;9.60;99.90
13436;DHT22;6790;49.520;8.504;2022-11-04T06:34:43;9.70;99.90
13436;DHT22;6790;49.520;8.504;2022-11-04T06:37:09;9.70;99.90
13436;DHT22;6790;49.520;8.504;2022-11-04T06:39:35;9.70;99.90
13436;DHT22;6790;49.520;8.504;2022-11-04T06:42:01;9.70;99.90
13436;DHT22;6790;49.520;8.504;2022-11-04T06:44:27;9.80;99.90
13436;DHT22;6790;49.520;8.504;2022-11-04T06:46:53;9.70;99.90
13436;DHT22;6790;49.520;8.504;2022-11-04T06:49:20;9.70;99.90
13436;DHT22;6790;49.520;8.504;2022-11-04T06:51:47;9.70;99.90
13436;DHT22;6790;49.520;8.504;2022-11-04T06:54:15;9.80;99.90
13436;DHT22;6790;49.520;8.504;2022-11-04T06:56:41;9.80;99.90
13436;DHT22;6790;49.520;8.504;2022-11-04T06:59:17;9.80;99.90
13436;DHT22;6790;49.520;8.504;2022-11-04T07:01:44;9.80;99.90
13436;DHT22;6790;49.520;8.504;2022-11-04T07:04:10;9.80;99.90
13436;DHT22;6790;49.520;8.504;2022-11-04T07:06:36;9.80;99.90
13436;DHT22;6790;49.520;8.504;2022-11-04T07:09:02;9.80;99.90
13436;DHT22;6790;49.520;8.504;2022-11-04T07:11:30;9.80;99.90
13436;DHT22;6790;49.520;8.504;2022-11-04T07:13:56;9.80;99.90
13436;DHT22;6790;49.520;8.504;2022-11-04T07:16:22;9.90;99.90
13436;DHT22;6790;49.520;8.504;2022-11-04T07:18:48;9.90;99.90
13436;DHT22;6790;49.520;8.504;2022-11-04T07:21:14;9.90;99.90
13436;DHT22;6790;49.520;8.504;2022-11-04T07:23:40;10.00;99.90
13436;DHT22;6790;49.520;8.504;2022-11-04T07:26:08;10.00;99.90
13436;DHT22;6790;49.520;8.504;2022-11-04T07:28:35;10.00;99.90
13436;DHT22;6790;49.520;8.504;2022-11-04T07:31:03;10.10;99.90
13436;DHT22;6790;49.520;8.504;2022-11-04T07:33:29;10.10;99.90
13436;DHT22;6790;49.520;8.504;2022-11-04T07:35:55;10.10;99.90
13436;DHT22;6790;49.520;8.504;2022-11-04T07:38:21;10.10;99.90
13436;DHT22;6790;49.520;8.504;2022-11-04T07:40:47;10.10;99.90
13436;DHT22;6790;49.520;8.504;2022-11-04T07:43:14;10.20;99.90
13436;DHT22;6790;49.520;8.504;2022-11-04T07:45:40;10.20;99.90
13436;DHT22;6790;49.520;8.504;2022-11-04T07:48:07;10.20;99.90
13436;DHT22;6790;49.520;8.504;2022-11-04T07:50:33;10.30;99.90
13436;DHT22;6790;49.520;8.504;2022-11-04T07:52:59;10.30;99.90
13436;DHT22;6790;49.520;8.504;2022-11-04T07:55:25;10.30;99.90
13436;DHT22;6790;49.520;8.504;2022-11-04T07:57:53;10.40;99.90
13436;DHT22;6790;49.520;8.504;2022-11-04T08:00:19;10.40;99.90
13436;DHT22;6790;49.520;8.504;2022-11-04T08:02:45;10.40;99.90
13436;DHT22;6790;49.520;8.504;2022-11-04T08:05:12;10.40;99.90
13436;DHT22;6790;49.520;8.504;2022-11-04T08:07:39;10.40;99.90
13436;DHT22;6790;49.520;8.504;2022-11-04T08:10:05;10.50;99.90
13436;DHT22;6790;49.520;8.504;2022-11-04T08:12:31;10.50;99.90
13436;DHT22;6790;49.520;8.504;2022-11-04T08:14:58;10.50;99.90
13436;DHT22;6790;49.520;8.504;2022-11-04T08:17:24;10.60;99.90
13436;DHT22;6790;49.520;8.504;2022-11-04T08:19:50;10.60;99.90
13436;DHT22;6790;49.520;8.504;2022-11-04T08:22:16;10.70;99.90
13436;DHT22;6790;49.520;8.504;2022-11-04T08:24:42;10.80;99.90
13436;DHT22;6790;49.520;8.504;2022-11-04T08:27:11;10.80;99.90
13436;DHT22;6790;49.520;8.504;2022-11-04T08:29:38;10.90;99.90
13436;DHT22;6790;49.520;8.504;2022-11-04T08:32:06;10.90;99.90
13436;DHT22;6790;49.520;8.504;2022-11-04T08:34:32;10.90;99.90
13436;DHT22;6790;49.520;8.504;2022-11-04T08:36:58;11.00;99.90
13436;DHT22;6790;49.520;8.504;2022-11-04T08:39:25;11.00;99.90
13436;DHT22;6790;49.520;8.504;2022-11-04T08:41:51;11.00;99.90
13436;DHT22;6790;49.520;8.504;2022-11-04T08:44:18;11.00;99.90
13436;DHT22;6790;49.520;8.504;2022-11-04T08:46:45;11.10;99.90
13436;DHT22;6790;49.520;8.504;2022-11-04T08:49:11;11.10;99.90
13436;DHT22;6790;49.520;8.504;2022-11-04T08:51:43;11.20;99.90
13436;DHT22;6790;49.520;8.504;2022-11-04T08:54:11;11.20;99.90
13436;DHT22;6790;49.520;8.504;2022-11-04T08:56:38;11.20;99.90
13436;DHT22;6790;49.520;8.504;2022-11-04T08:59:05;11.20;99.90
13436;DHT22;6790;49.520;8.504;2022-11-04T09:01:33;11.30;99.90
13436;DHT22;6790;49.520;8.504;2022-11-04T09:04:00;11.30;99.90
13436;DHT22;6790;49.520;8.504;2022-11-04T09:06:30;11.30;99.90
13436;DHT22;6790;49.520;8.504;2022-11-04T09:09:01;11.40;99.90
13436;DHT22;6790;49.520;8.504;2022-11-04T09:11:33;11.40;99.90
13436;DHT22;6790;49.520;8.504;2022-11-04T09:14:03;11.40;99.90
13436;DHT22;6790;49.520;8.504;2022-11-04T09:16:31;11.50;99.90
13436;DHT22;6790;49.520;8.504;2022-11-04T09:18:58;11.50;99.90
13436;DHT22;6790;49.520;8.504;2022-11-04T09:21:25;11.50;99.90
13436;DHT22;6790;49.520;8.504;2022-11-04T09:23:51;11.60;99.90
13436;DHT22;6790;49.520;8.504;2022-11-04T09:26:17;11.60;99.90
13436;DHT22;6790;49.520;8.504;2022-11-04T09:28:44;11.70;99.90
13436;DHT22;6790;49.520;8.504;2022-11-04T09:31:16;11.60;99.90
13436;DHT22;6790;49.520;8.504;2022-11-04T09:33:42;11.60;99.90
13436;DHT22;6790;49.520;8.504;2022-11-04T09:36:10;11.70;99.90
13436;DHT22;6790;49.520;8.504;2022-11-04T09:38:37;11.70;99.90
13436;DHT22;6790;49.520;8.504;2022-11-04T09:44:20;11.90;99.90
13436;DHT22;6790;49.520;8.504;2022-11-04T09:47:12;11.90;99.90
13436;DHT22;6790;49.520;8.504;2022-11-04T09:49:40;11.90;99.90
13436;DHT22;6790;49.520;8.504;2022-11-04T09:52:17;12.00;99.90
13436;DHT22;6790;49.520;8.504;2022-11-04T09:57:52;12.20;99.90
13436;DHT22;6790;49.520;8.504;2022-11-04T10:00:19;12.20;99.90
13436;DHT22;6790;49.520;8.504;2022-11-04T10:15:45;12.00;99.90
13436;DHT22;6790;49.520;8.504;2022-11-04T10:18:46;12.10;99.90
13436;DHT22;6790;49.520;8.504;2022-11-04T10:21:42;12.10;99.90
13436;DHT22;6790;49.520;8.504;2022-11-04T10:24:39;12.10;99.90
13436;DHT22;6790;49.520;8.504;2022-11-04T10:27:18;12.30;99.90
13436;DHT22;6790;49.520;8.504;2022-11-04T10:29:50;12.30;99.90
13436;DHT22;6790;49.520;8.504;2022-11-04T10:32:38;12.20;99.90
13436;DHT22;6790;49.520;8.504;2022-11-04T10:38:17;12.10;99.90
13436;DHT22;6790;49.520;8.504;2022-11-04T10:40:50;12.10;99.90
13436;DHT22;6790;49.520;8.504;2022-11-04T10:43:32;12.10;99.90
13436;DHT22;6790;49.520;8.504;2022-11-04T10:51:17;12.20;99.90
13436;DHT22;6790;49.520;8.504;2022-11-04T10:53:53;12.30;99.90
13436;DHT22;6790;49.520;8.504;2022-11-04T10:59:15;12.50;99.90
13436;DHT22;6790;49.520;8.504;2022-11-04T11:01:53;12.50;99.90
13436;DHT22;6790;49.520;8.504;2022-11-04T11:04:33;12.70;99.90
13436;DHT22;6790;49.520;8.504;2022-11-04T11:07:04;12.90;99.90
13436;DHT22;6790;49.520;8.504;2022-11-04T11:09:34;12.80;99.90
13436;DHT22;6790;49.520;8.504;2022-11-04T11:12:02;12.70;99.90
13436;DHT22;6790;49.520;8.504;2022-11-04T11:14:35;12.50;99.90
13436;DHT22;6790;49.520;8.504;2022-11-04T11:22:47;12.90;99.90
13436;DHT22;6790;49.520;8.504;2022-11-04T11:25:32;13.10;99.90
13436;DHT22;6790;49.520;8.504;2022-11-04T11:28:04;13.30;99.90
13436;DHT22;6790;49.520;8.504;2022-11-04T11:30:33;13.60;99.90
13436;DHT22;6790;49.520;8.504;2022-11-04T11:33:25;13.70;99.90
13436;DHT22;6790;49.520;8.504;2022-11-04T11:36:00;13.60;99.90
13436;DHT22;6790;49.520;8.504;2022-11-04T11:38:53;13.40;99.90
13436;DHT22;6790;49.520;8.504;2022-11-04T11:41:23;13.20;99.90
13436;DHT22;6790;49.520;8.504;2022-11-04T11:44:01;13.00;99.90
13436;DHT22;6790;49.520;8.504;2022-11-04T11:46:31;13.00;99.90
13436;DHT22;6790;49.520;8.504;2022-11-04T11:49:01;13.00;99.90
13436;DHT22;6790;49.520;8.504;2022-11-04T11:51:35;13.00;99.90
13436;DHT22;6790;49.520;8.504;2022-11-04T11:56:59;13.00;99.90
13436;DHT22;6790;49.520;8.504;2022-11-04T11:59:41;12.80;99.90
13436;DHT22;6790;49.520;8.504;2022-11-04T12:05:13;12.90;99.90
13436;DHT22;6790;49.520;8.504;2022-11-04T12:07:54;12.90;99.90
13436;DHT22;6790;49.520;8.504;2022-11-04T12:10:50;13.00;99.90
13436;DHT22;6790;49.520;8.504;2022-11-04T12:13:25;13.00;99.90
13436;DHT22;6790;49.520;8.504;2022-11-04T12:21:30;13.10;99.90
13436;DHT22;6790;49.520;8.504;2022-11-04T12:30:18;13.10;99.90
13436;DHT22;6790;49.520;8.504;2022-11-04T12:41:29;13.10;99.90
13436;DHT22;6790;49.520;8.504;2022-11-04T12:55:21;12.90;99.90
13436;DHT22;6790;49.520;8.504;2022-11-04T13:00:52;13.00;99.90
13436;DHT22;6790;49.520;8.504;2022-11-04T13:06:07;12.80;99.90
13436;DHT22;6790;49.520;8.504;2022-11-04T13:08:42;13.00;99.90
13436;DHT22;6790;49.520;8.504;2022-11-04T13:11:30;12.90;99.90
13436;DHT22;6790;49.520;8.504;2022-11-04T13:16:49;13.10;99.90
13436;DHT22;6790;49.520;8.504;2022-11-04T13:21:57;13.10;99.90
13436;DHT22;6790;49.520;8.504;2022-11-04T13:24:32;13.10;99.90
13436;DHT22;6790;49.520;8.504;2022-11-04T13:27:08;13.00;99.90
13436;DHT22;6790;49.520;8.504;2022-11-04T13:29:42;13.10;99.90
13436;DHT22;6790;49.520;8.504;2022-11-04T13:32:22;13.00;99.90
13436;DHT22;6790;49.520;8.504;2022-11-04T13:35:18;13.00;99.90
13436;DHT22;6790;49.520;8.504;2022-11-04T13:37:58;12.90;99.90
13436;DHT22;6790;49.520;8.504;2022-11-04T13:41:25;13.00;99.90
13436;DHT22;6790;49.520;8.504;2022-11-04T13:43:50;13.00;99.90
13436;DHT22;6790;49.520;8.504;2022-11-04T13:46:22;12.90;99.90
13436;DHT22;6790;49.520;8.504;2022-11-04T13:52:01;12.80;99.90
13436;DHT22;6790;49.520;8.504;2022-11-04T13:57:06;12.70;99.90
13436;DHT22;6790;49.520;8.504;2022-11-04T14:02:51;12.70;99.90
13436;DHT22;6790;49.520;8.504;2022-11-04T14:16:06;12.80;99.90
13436;DHT22;6790;49.520;8.504;2022-11-04T14:18:36;12.80;99.90
13436;DHT22;6790;49.520;8.504;2022-11-04T14:21:24;12.70;99.90
13436;DHT22;6790;49.520;8.504;2022-11-04T14:23:56;12.70;99.90
13436;DHT22;6790;49.520;8.504;2022-11-04T14:26:42;12.70;99.90
13436;DHT22;6790;49.520;8.504;2022-11-04T14:29:16;12.60;99.90
13436;DHT22;6790;49.520;8.504;2022-11-04T14:31:48;12.50;99.90
13436;DHT22;6790;49.520;8.504;2022-11-04T14:37:01;12.40;99.90
13436;DHT22;6790;49.520;8.504;2022-11-04T14:39:35;12.30;99.90
13436;DHT22;6790;49.520;8.504;2022-11-04T14:42:04;12.30;99.90
13436;DHT22;6790;49.520;8.504;2022-11-04T14:44:35;12.20;99.90
13436;DHT22;6790;49.520;8.504;2022-11-04T14:47:19;12.20;99.90
13436;DHT22;6790;49.520;8.504;2022-11-04T14:55:50;11.70;99.90
13436;DHT22;6790;49.520;8.504;2022-11-04T14:58:23;11.60;99.90
13436;DHT22;6790;49.520;8.504;2022-11-04T15:00:56;11.60;99.90
13436;DHT22;6790;49.520;8.504;2022-11-04T15:03:35;11.60;99.90
13436;DHT22;6790;49.520;8.504;2022-11-04T15:06:06;11.50;99.90
13436;DHT22;6790;49.520;8.504;2022-11-04T15:16:37;11.50;99.90
13436;DHT22;6790;49.520;8.504;2022-11-04T15:19:07;11.50;99.90
13436;DHT22;6790;49.520;8.504;2022-11-04T15:21:40;11.50;99.90
13436;DHT22;6790;49.520;8.504;2022-11-04T15:24:15;11.50;99.90
13436;DHT22;6790;49.520;8.504;2022-11-04T15:26:42;11.40;99.90
13436;DHT22;6790;49.520;8.504;2022-11-04T15:29:15;11.40;99.90
13436;DHT22;6790;49.520;8.504;2022-11-04T15:31:59;11.40;99.90
13436;DHT22;6790;49.520;8.504;2022-11-04T15:34:27;11.40;99.90
13436;DHT22;6790;49.520;8.504;2022-11-04T15:36:57;11.40;99.90
13436;DHT22;6790;49.520;8.504;2022-11-04T15:39:33;11.50;99.90
13436;DHT22;6790;49.520;8.504;2022-11-04T15:42:03;11.40;99.90
13436;DHT22;6790;49.520;8.504;2022-11-04T15:44:51;11.40;99.90
13436;DHT22;6790;49.520;8.504;2022-11-04T15:49:49;11.30;99.90
13436;DHT22;6790;49.520;8.504;2022-11-04T15:52:24;11.30;99.90
13436;DHT22;6790;49.520;8.504;2022-11-04T15:54:53;11.20;99.90
13436;DHT22;6790;49.520;8.504;2022-11-04T15:57:32;11.20;99.90
13436;DHT22;6790;49.520;8.504;2022-11-04T16:00:16;11.20;99.90
13436;DHT22;6790;49.520;8.504;2022-11-04T16:02:53;11.10;99.90
13436;DHT22;6790;49.520;8.504;2022-11-04T16:08:18;11.20;99.90
13436;DHT22;6790;49.520;8.504;2022-11-04T16:10:45;11.10;99.90
13436;DHT22;6790;49.520;8.504;2022-11-04T16:18:34;11.10;99.90
13436;DHT22;6790;49.520;8.504;2022-11-04T16:21:19;11.10;99.90
13436;DHT22;6790;49.520;8.504;2022-11-04T16:23:51;11.10;99.90
13436;DHT22;6790;49.520;8.504;2022-11-04T16:26:25;11.10;99.90
13436;DHT22;6790;49.520;8.504;2022-11-04T16:28:56;11.10;99.90
13436;DHT22;6790;49.520;8.504;2022-11-04T16:31:31;11.10;99.90
13436;DHT22;6790;49.520;8.504;2022-11-04T16:33:58;11.20;99.90
13436;DHT22;6790;49.520;8.504;2022-11-04T16:36:25;11.10;99.90
13436;DHT22;6790;49.520;8.504;2022-11-04T16:38:53;11.10;99.90
13436;DHT22;6790;49.520;8.504;2022-11-04T16:41:28;11.00;99.90
13436;DHT22;6790;49.520;8.504;2022-11-04T16:43:57;11.00;99.90
13436;DHT22;6790;49.520;8.504;2022-11-04T16:46:23;11.10;99.90
13436;DHT22;6790;49.520;8.504;2022-11-04T16:48:50;11.10;99.90
13436;DHT22;6790;49.520;8.504;2022-11-04T16:51:19;11.00;99.90
13436;DHT22;6790;49.520;8.504;2022-11-04T16:53:48;11.00;99.90
13436;DHT22;6790;49.520;8.504;2022-11-04T16:56:16;11.00;99.90
13436;DHT22;6790;49.520;8.504;2022-11-04T16:58:42;11.00;99.90
13436;DHT22;6790;49.520;8.504;2022-11-04T17:01:12;11.00;99.90
13436;DHT22;6790;49.520;8.504;2022-11-04T17:03:39;10.90;99.90
13436;DHT22;6790;49.520;8.504;2022-11-04T17:06:09;10.90;99.90
13436;DHT22;6790;49.520;8.504;2022-11-04T17:08:36;10.90;99.90
13436;DHT22;6790;49.520;8.504;2022-11-04T17:11:03;10.90;99.90
13436;DHT22;6790;49.520;8.504;2022-11-04T17:13:29;11.00;99.90
13436;DHT22;6790;49.520;8.504;2022-11-04T17:15:54;10.90;99.90
13436;DHT22;6790;49.520;8.504;2022-11-04T17:18:21;10.80;99.90
13436;DHT22;6790;49.520;8.504;2022-11-04T17:20:49;10.80;99.90
13436;DHT22;6790;49.520;8.504;2022-11-04T17:23:17;10.80;99.90
13436;DHT22;6790;49.520;8.504;2022-11-04T17:25:43;10.80;99.90
13436;DHT22;6790;49.520;8.504;2022-11-04T17:28:09;10.90;99.90
13436;DHT22;6790;49.520;8.504;2022-11-04T17:30:36;10.90;99.90
13436;DHT22;6790;49.520;8.504;2022-11-04T17:33:02;10.80;99.90
13436;DHT22;6790;49.520;8.504;2022-11-04T17:35:37;10.90;99.90
13436;DHT22;6790;49.520;8.504;2022-11-04T17:38:04;10.80;99.90
13436;DHT22;6790;49.520;8.504;2022-11-04T17:40:30;10.80;99.90
13436;DHT22;6790;49.520;8.504;2022-11-04T17:42:55;10.70;99.90
13436;DHT22;6790;49.520;8.504;2022-11-04T17:45:41;10.80;99.90
13436;DHT22;6790;49.520;8.504;2022-11-04T17:48:07;10.80;99.90
13436;DHT22;6790;49.520;8.504;2022-11-04T17:50:36;10.60;99.90
13436;DHT22;6790;49.520;8.504;2022-11-04T17:53:03;10.70;99.90
13436;DHT22;6790;49.520;8.504;2022-11-04T17:55:29;10.70;99.90
13436;DHT22;6790;49.520;8.504;2022-11-04T17:57:55;10.80;99.90
13436;DHT22;6790;49.520;8.504;2022-11-04T18:00:21;10.60;99.90
13436;DHT22;6790;49.520;8.504;2022-11-04T18:02:53;10.70;99.90
13436;DHT22;6790;49.520;8.504;2022-11-04T18:05:19;10.70;99.90
13436;DHT22;6790;49.520;8.504;2022-11-04T18:07:44;10.70;99.90
13436;DHT22;6790;49.520;8.504;2022-11-04T18:10:10;10.70;99.90
13436;DHT22;6790;49.520;8.504;2022-11-04T18:12:36;10.70;99.90
13436;DHT22;6790;49.520;8.504;2022-11-04T18:15:10;10.70;99.90
13436;DHT22;6790;49.520;8.504;2022-11-04T18:17:38;10.50;99.90
13436;DHT22;6790;49.520;8.504;2022-11-04T18:20:05;10.50;99.90
13436;DHT22;6790;49.520;8.504;2022-11-04T18:22:33;10.50;99.90
13436;DHT22;6790;49.520;8.504;2022-11-04T18:24:59;10.30;99.90
13436;DHT22;6790;49.520;8.504;2022-11-04T18:27:25;10.30;99.90
13436;DHT22;6790;49.520;8.504;2022-11-04T18:29:51;10.30;99.90
13436;DHT22;6790;49.520;8.504;2022-11-04T18:32:17;10.30;99.90
13436;DHT22;6790;49.520;8.504;2022-11-04T18:34:42;10.20;99.90
13436;DHT22;6790;49.520;8.504;2022-11-04T18:37:08;10.20;99.90
13436;DHT22;6790;49.520;8.504;2022-11-04T18:39:34;10.20;99.90
13436;DHT22;6790;49.520;8.504;2022-11-04T18:42:02;10.10;99.90
13436;DHT22;6790;49.520;8.504;2022-11-04T18:44:28;10.30;99.90
13436;DHT22;6790;49.520;8.504;2022-11-04T18:46:53;10.20;99.90
13436;DHT22;6790;49.520;8.504;2022-11-04T18:49:19;10.20;99.90
13436;DHT22;6790;49.520;8.504;2022-11-04T18:51:45;10.10;99.90
13436;DHT22;6790;49.520;8.504;2022-11-04T18:54:11;10.10;99.90
13436;DHT22;6790;49.520;8.504;2022-11-04T18:56:38;10.10;99.90